Time;durP1;ratioP1;P1;durP2;ratioP2;P2;SDS_P1;SDS_P2;PMS_P1;PMS_P2;Temp;Humidity;BMP_temperature;BMP_pressure;BME280_temperature;BME280_humidity;BME280_pressure;Samples;Min_cycle;Max_cycle;Signal;HPM_P1;HPM_P2
2023/07/04 07:57:35;;;;;;;;;;;15.30;66.50;;;;;;6165910;23;19921;-92
2023/07/04 08:04:18;;;;;;;;;;;15.40;68.80;;;;;;6146447;23;20227;-94
2023/07/04 08:23:33;;;;;;;;;;;15.60;65.70;;;;;;5957742;23;19926;-92
2023/07/04 08:34:36;;;;;;;;;;;;;;;;;;;;;
2023/07/04 08:40:01;;;;;;;;;;;15.80;65.00;;;;;;5826583;24;19928;-91
2023/07/04 08:42:45;;;;;;;;;;;15.80;65.80;;;;;;5802521;24;20032;-92
2023/07/04 08:45:30;;;;;;;;;;;;;;;;;;;;;
2023/07/04 09:53:30;;;;;;;;;;;;;;;;;;;;;
2023/07/04 09:56:28;;;;;;;;;;;;;;;;;;;;;
2023/07/04 10:06:02;;;;;;;;;;;16.30;63.70;;;;;;6098583;23;19956;-89
2023/07/04 10:09:27;;;;;;;;;;;;;;;;;;;;;
2023/07/04 10:19:34;;;;;;;;;;;;;;;;;;;;;
2023/07/04 10:22:58;;;;;;;;;;;16.50;64.50;;;;;;5808506;24;19933;-93
2023/07/04 10:36:52;;;;;;;;;;;16.60;65.10;;;;;;5473840;22;15835390;-92
2023/07/04 10:39:31;;;;;;;;;;;16.50;63.00;;;;;;6042497;23;19936;-95
2023/07/04 10:49:22;;;;;;;;;;;16.50;65.10;;;;;;5825460;24;19989;-96
2023/07/04 10:59:42;;;;;;;;;;;16.80;64.70;;;;;;5727284;24;19928;-92
2023/07/04 11:17:15;;;;;;;;;;;16.70;63.90;;;;;;6169435;23;20190;-95
2023/07/04 11:20:09;;;;;;;;;;;;;;;;;;;;;
2023/07/04 11:26:13;;;;;;;;;;;16.90;64.10;;;;;;5994394;23;20045;-94
2023/07/04 11:29:00;;;;;;;;;;;16.90;63.70;;;;;;6138662;23;20752;-95
2023/07/04 11:31:45;;;;;;;;;;;16.90;63.90;;;;;;6181877;23;20674;-94
2023/07/04 11:34:21;;;;;;;;;;;16.90;62.80;;;;;;6135222;23;19920;-92
2023/07/04 11:49:28;;;;;;;;;;;17.00;63.20;;;;;;6040568;23;19992;-95
2023/07/04 11:58:35;;;;;;;;;;;16.90;65.00;;;;;;5984742;23;19964;-94
2023/07/04 12:01:23;;;;;;;;;;;17.20;64.10;;;;;;5924980;23;19978;-95
2023/07/04 12:10:33;;;;;;;;;;;17.60;62.20;;;;;;6028622;23;19925;-92
2023/07/04 12:13:22;;;;;;;;;;;17.60;61.90;;;;;;5941926;23;19978;-90
2023/07/04 12:15:54;;;;;;;;;;;17.70;61.90;;;;;;5964579;23;20118;-92
2023/07/04 12:18:40;;;;;;;;;;;17.80;61.80;;;;;;5963905;23;19953;-94
2023/07/04 12:21:15;;;;;;;;;;;17.80;61.10;;;;;;6024939;23;19921;-91
2023/07/04 12:24:53;;;;;;;;;;;17.70;60.90;;;;;;6009421;23;19944;-93
2023/07/04 12:27:46;;;;;;;;;;;;;;;;;;;;;
2023/07/04 12:30:20;;;;;;;;;;;17.80;60.90;;;;;;6157792;23;20821;-93
2023/07/04 12:36:44;;;;;;;;;;;18.00;60.70;;;;;;6143601;23;19927;-93
2023/07/04 12:39:12;;;;;;;;;;;18.10;61.70;;;;;;6144315;23;20409;-94
2023/07/04 12:42:32;;;;;;;;;;;;;;;;;;;;;
2023/07/04 12:45:23;;;;;;;;;;;18.30;60.60;;;;;;5991845;23;19922;-91
2023/07/04 12:48:03;;;;;;;;;;;18.40;59.40;;;;;;6022758;23;20480;-92
2023/07/04 12:50:30;;;;;;;;;;;18.40;59.20;;;;;;6032875;23;19921;-93
2023/07/04 12:56:21;;;;;;;;;;;18.10;59.00;;;;;;6035724;23;19981;-94
2023/07/04 12:59:14;;;;;;;;;;;;;;;;;;;;;
2023/07/04 13:02:37;;;;;;;;;;;18.10;59.20;;;;;;5992835;23;20710;-90
2023/07/04 13:05:08;;;;;;;;;;;18.20;59.90;;;;;;5999581;23;20024;-88
2023/07/04 13:07:34;;;;;;;;;;;18.30;60.40;;;;;;5953266;23;19926;-95
2023/07/04 13:10:04;;;;;;;;;;;18.50;59.20;;;;;;6040099;23;19932;-92
2023/07/04 13:12:32;;;;;;;;;;;18.50;59.20;;;;;;5989462;23;19998;-92
2023/07/04 13:15:09;;;;;;;;;;;18.40;59.30;;;;;;6166263;22;20034;-91
2023/07/04 13:17:37;;;;;;;;;;;18.20;59.70;;;;;;6161389;23;20392;-91
2023/07/04 13:20:20;;;;;;;;;;;18.30;59.60;;;;;;6175980;23;20246;-90
2023/07/04 13:22:46;;;;;;;;;;;18.30;59.60;;;;;;6165925;23;20118;-90
2023/07/04 13:25:54;;;;;;;;;;;18.50;60.50;;;;;;6176167;23;20198;-93
2023/07/04 13:28:41;;;;;;;;;;;;;;;;;;;;;
2023/07/04 13:31:28;;;;;;;;;;;18.40;59.10;;;;;;6201584;23;19919;-93
2023/07/04 13:34:09;;;;;;;;;;;18.30;57.40;;;;;;6175094;23;20027;-95
2023/07/04 13:36:39;;;;;;;;;;;18.30;58.50;;;;;;6199701;23;19924;-93
2023/07/04 13:39:28;;;;;;;;;;;18.20;59.20;;;;;;6205994;23;19924;-93
2023/07/04 13:42:23;;;;;;;;;;;18.20;59.20;;;;;;6064573;23;19925;-96
2023/07/04 13:44:53;;;;;;;;;;;18.30;59.50;;;;;;6088761;23;19924;-94
2023/07/04 13:47:29;;;;;;;;;;;;;;;;;;;;;
2023/07/04 13:50:14;;;;;;;;;;;18.40;59.00;;;;;;6163579;23;19924;-94
2023/07/04 13:56:17;;;;;;;;;;;18.40;59.20;;;;;;6127506;23;20282;-93
2023/07/04 13:59:03;;;;;;;;;;;18.30;59.90;;;;;;6062012;23;19925;-91
2023/07/04 14:04:49;;;;;;;;;;;18.10;59.10;;;;;;6156672;23;19920;-94
2023/07/04 14:07:32;;;;;;;;;;;18.20;59.80;;;;;;6065869;23;20004;-93
2023/07/04 14:17:02;;;;;;;;;;;18.50;59.50;;;;;;6024415;23;20485;-93
2023/07/04 14:40:53;;;;;;;;;;;18.60;60.00;;;;;;5862513;24;19916;-93
2023/07/04 14:47:10;;;;;;;;;;;;;;;;;;;;;
2023/07/04 14:57:04;;;;;;;;;;;18.40;60.30;;;;;;5779350;24;20165;-94
2023/07/04 15:03:04;;;;;;;;;;;18.70;59.80;;;;;;5815929;24;19996;-96
2023/07/04 15:09:30;;;;;;;;;;;;;;;;;;;;;
2023/07/04 15:13:04;;;;;;;;;;;;;;;;;;;;;
2023/07/04 15:28:42;;;;;;;;;;;19.20;57.70;;;;;;6021132;23;19926;-96
2023/07/04 15:42:17;;;;;;;;;;;;;;;;;;;;;
2023/07/04 16:05:08;;;;;;;;;;;19.20;56.40;;;;;;5919335;24;20349;-96
2023/07/04 16:14:10;;;;;;;;;;;19.00;56.10;;;;;;6021008;23;19921;-93
2023/07/04 16:20:07;;;;;;;;;;;18.90;56.10;;;;;;6043123;23;20001;-96
2023/07/04 16:22:59;;;;;;;;;;;18.90;56.80;;;;;;5995896;23;19926;-95
2023/07/04 16:25:49;;;;;;;;;;;18.80;57.50;;;;;;5976413;23;20021;-94
2023/07/04 16:40:59;;;;;;;;;;;;;;;;;;;;;
2023/07/04 16:51:01;;;;;;;;;;;18.20;59.30;;;;;;5882106;24;19962;-95
2023/07/04 17:17:29;;;;;;;;;;;17.80;59.90;;;;;;6063608;23;19965;-96
2023/07/04 17:20:26;;;;;;;;;;;17.80;60.00;;;;;;6041655;23;19922;-95
2023/07/04 17:23:40;;;;;;;;;;;17.80;59.60;;;;;;6024632;23;19922;-95
2023/07/04 17:34:02;;;;;;;;;;;;;;;;;;;;;
2023/07/04 17:41:58;;;;;;;;;;;17.50;61.00;;;;;;5797428;24;19984;-96
2023/07/04 20:27:35;;;;;;;;;;;15.20;69.80;;;;;;6076355;23;19924;-93
2023/07/04 20:33:51;;;;;;;;;;;15.00;70.00;;;;;;5977998;23;20368;-96
2023/07/04 20:36:49;;;;;;;;;;;;;;;;;;;;;
2023/07/04 21:00:13;;;;;;;;;;;14.70;70.30;;;;;;4862006;29;20428;-92
2023/07/04 21:06:57;;;;;;;;;;;14.60;69.50;;;;;;4886033;29;19973;-94
2023/07/04 21:09:34;;;;;;;;;;;14.60;69.40;;;;;;4877019;29;20304;-91
2023/07/04 21:12:03;;;;;;;;;;;14.60;69.20;;;;;;4913939;28;19930;-91
2023/07/04 21:14:28;;;;;;;;;;;14.60;69.20;;;;;;4971465;28;19945;-92
2023/07/04 21:16:54;;;;;;;;;;;14.60;69.20;;;;;;4987245;28;19925;-91
2023/07/04 21:19:24;;;;;;;;;;;14.60;71.00;;;;;;4977142;28;20278;-92
2023/07/04 21:21:50;;;;;;;;;;;14.60;71.20;;;;;;4991627;28;19929;-91
2023/07/04 21:24:16;;;;;;;;;;;14.60;70.20;;;;;;4989454;28;20401;-91
2023/07/04 21:26:42;;;;;;;;;;;14.50;70.20;;;;;;4989708;28;20641;-92
2023/07/04 21:29:08;;;;;;;;;;;14.50;69.90;;;;;;4984858;28;20012;-92
2023/07/04 21:31:33;;;;;;;;;;;14.50;69.90;;;;;;4968811;28;20289;-91
2023/07/04 21:33:59;;;;;;;;;;;14.50;69.70;;;;;;4985299;28;20036;-92
2023/07/04 21:36:25;;;;;;;;;;;14.40;69.80;;;;;;4964513;28;19922;-93
2023/07/04 21:38:53;;;;;;;;;;;14.40;69.90;;;;;;4986170;28;19965;-91
2023/07/04 21:41:21;;;;;;;;;;;14.40;69.80;;;;;;4982619;28;19936;-91
2023/07/04 21:43:46;;;;;;;;;;;14.40;69.80;;;;;;4997090;28;19925;-91
2023/07/04 21:46:12;;;;;;;;;;;14.40;69.90;;;;;;4995155;28;19926;-91
2023/07/04 21:48:38;;;;;;;;;;;14.40;69.70;;;;;;5009597;28;19928;-92
2023/07/04 21:51:05;;;;;;;;;;;14.40;69.90;;;;;;5027245;28;19969;-91
2023/07/04 21:53:31;;;;;;;;;;;14.30;70.00;;;;;;5020102;28;20369;-91
2023/07/04 21:55:56;;;;;;;;;;;14.30;71.40;;;;;;5029355;28;20032;-90
2023/07/04 21:58:22;;;;;;;;;;;14.30;71.20;;;;;;5007908;28;19975;-92
2023/07/04 22:00:48;;;;;;;;;;;14.30;70.90;;;;;;5020964;28;20422;-91
2023/07/04 22:03:16;;;;;;;;;;;14.20;70.80;;;;;;5021391;28;19924;-90
2023/07/04 22:05:47;;;;;;;;;;;14.20;70.70;;;;;;5013001;28;19925;-91
2023/07/04 22:08:14;;;;;;;;;;;14.20;70.70;;;;;;4985982;28;19929;-92
2023/07/04 22:10:40;;;;;;;;;;;14.20;70.60;;;;;;5003872;28;19928;-91
2023/07/04 22:13:08;;;;;;;;;;;14.30;70.60;;;;;;4990754;28;20016;-92
2023/07/04 22:15:35;;;;;;;;;;;14.30;70.40;;;;;;5007722;28;19925;-91
2023/07/04 22:18:04;;;;;;;;;;;14.30;70.60;;;;;;5002619;28;20479;-92
2023/07/04 22:20:30;;;;;;;;;;;14.30;70.70;;;;;;5017252;28;20285;-92
2023/07/04 22:22:59;;;;;;;;;;;14.30;70.70;;;;;;4980620;28;19925;-92
2023/07/04 22:25:34;;;;;;;;;;;14.40;71.20;;;;;;4988688;28;19975;-91
2023/07/04 22:28:00;;;;;;;;;;;14.40;71.50;;;;;;5005005;28;20456;-91
2023/07/04 22:30:27;;;;;;;;;;;14.40;71.20;;;;;;5013457;28;19932;-92
2023/07/04 22:32:53;;;;;;;;;;;14.30;71.20;;;;;;4997045;28;20397;-91
2023/07/04 22:35:20;;;;;;;;;;;14.40;71.30;;;;;;5011251;28;19932;-92
2023/07/04 22:37:46;;;;;;;;;;;14.30;71.40;;;;;;5000779;28;19936;-91
2023/07/04 22:40:19;;;;;;;;;;;14.40;71.70;;;;;;5010483;28;19925;-91
2023/07/04 22:42:47;;;;;;;;;;;14.40;71.80;;;;;;4991427;28;19929;-91
2023/07/04 22:45:16;;;;;;;;;;;14.40;71.40;;;;;;5025172;28;19972;-92
2023/07/04 22:47:42;;;;;;;;;;;14.40;72.00;;;;;;5006438;28;19960;-92
2023/07/04 22:50:10;;;;;;;;;;;14.40;72.10;;;;;;5019781;28;19960;-91
2023/07/04 22:52:38;;;;;;;;;;;14.40;72.30;;;;;;4987641;28;19925;-92
2023/07/04 22:55:07;;;;;;;;;;;14.50;72.20;;;;;;5008687;28;19925;-92
2023/07/04 22:57:32;;;;;;;;;;;14.40;72.50;;;;;;5007916;28;19960;-92
2023/07/04 22:59:58;;;;;;;;;;;14.40;72.70;;;;;;5019484;28;20018;-92
2023/07/04 23:02:43;;;;;;;;;;;;;;;;;;;;;
2023/07/04 23:05:14;;;;;;;;;;;14.40;73.00;;;;;;5003932;28;19977;-91
2023/07/04 23:07:45;;;;;;;;;;;14.40;73.10;;;;;;4997298;28;20020;-92
2023/07/04 23:10:10;;;;;;;;;;;14.30;73.50;;;;;;4999656;28;19926;-90
2023/07/04 23:12:39;;;;;;;;;;;14.30;73.50;;;;;;4999276;28;20023;-91
2023/07/04 23:15:05;;;;;;;;;;;14.20;73.50;;;;;;5013031;28;19925;-91
2023/07/04 23:17:33;;;;;;;;;;;14.20;73.70;;;;;;5009617;28;19932;-91
2023/07/04 23:20:04;;;;;;;;;;;14.20;74.20;;;;;;5022264;28;19929;-90
2023/07/04 23:22:30;;;;;;;;;;;14.20;74.90;;;;;;4998016;28;19937;-90
2023/07/04 23:24:59;;;;;;;;;;;14.10;75.50;;;;;;5002127;28;19947;-90
2023/07/04 23:27:24;;;;;;;;;;;14.00;75.90;;;;;;4992389;28;19940;-90
2023/07/04 23:29:50;;;;;;;;;;;13.90;76.50;;;;;;5011869;28;19933;-91
2023/07/04 23:32:16;;;;;;;;;;;13.90;76.70;;;;;;5006632;28;19925;-90
2023/07/04 23:34:42;;;;;;;;;;;13.90;76.70;;;;;;5008006;28;20381;-91
2023/07/04 23:37:08;;;;;;;;;;;13.80;76.60;;;;;;5002452;28;19925;-90
2023/07/04 23:39:33;;;;;;;;;;;13.70;76.70;;;;;;4998078;28;20471;-91
2023/07/04 23:42:02;;;;;;;;;;;13.70;76.70;;;;;;4983113;28;20408;-90
2023/07/04 23:44:27;;;;;;;;;;;13.60;76.70;;;;;;5011176;28;20043;-90
2023/07/04 23:46:55;;;;;;;;;;;13.60;77.20;;;;;;5002263;28;20671;-89
2023/07/04 23:49:23;;;;;;;;;;;13.60;77.90;;;;;;5016033;28;19960;-90
2023/07/04 23:51:52;;;;;;;;;;;13.50;78.00;;;;;;5017221;28;20305;-91
2023/07/04 23:54:21;;;;;;;;;;;13.50;78.40;;;;;;5011081;28;20012;-90
2023/07/04 23:56:49;;;;;;;;;;;13.50;78.60;;;;;;5004438;28;19920;-91
2023/07/04 23:59:15;;;;;;;;;;;13.50;78.70;;;;;;5002636;28;20078;-90
